Time;durP1;ratioP1;P1;durP2;ratioP2;P2;SDS_P1;SDS_P2;PMS_P1;PMS_P2;Temp;Humidity;BMP_temperature;BMP_pressure;BME280_temperature;BME280_humidity;BME280_pressure;Samples;Min_cycle;Max_cycle;Signal;HPM_P1;HPM_P2
2022/05/03 00:00:08;;;;;;;;;;;;;;;11.23;92.35;99790.00;6211238;23;19939;-92
2022/05/03 00:02:42;;;;;;;;;;;;;;;11.03;94.79;99792.25;6211412;23;19954;-93
2022/05/03 00:05:15;;;;;;;;;;;;;;;10.94;95.07;99788.59;6186406;23;19912;-85
2022/05/03 00:07:49;;;;;;;;;;;;;;;10.96;94.46;99791.72;6187065;23;20290;-91
2022/05/03 00:10:15;;;;;;;;;;;;;;;10.88;95.31;99782.81;6186860;23;19943;-93
2022/05/03 00:12:42;;;;;;;;;;;;;;;10.92;93.98;99783.47;6213642;23;19912;-92
2022/05/03 00:15:07;;;;;;;;;;;;;;;10.94;93.42;99783.81;6186384;23;19982;-93
2022/05/03 00:17:33;;;;;;;;;;;;;;;10.92;93.69;99774.41;6187495;23;20342;-92
2022/05/03 00:19:59;;;;;;;;;;;;;;;10.85;94.25;99758.75;6186735;23;20246;-92
2022/05/03 00:22:24;;;;;;;;;;;;;;;10.89;94.20;99764.97;6186854;23;19915;-92
2022/05/03 00:24:54;;;;;;;;;;;;;;;10.87;93.95;99769.41;6213606;23;19912;-91
2022/05/03 00:27:20;;;;;;;;;;;;;;;10.90;93.69;99763.75;6212336;23;20407;-85
2022/05/03 00:29:45;;;;;;;;;;;;;;;10.84;94.34;99756.44;6186386;23;19918;-85
2022/05/03 00:32:11;;;;;;;;;;;;;;;10.85;94.45;99758.75;6185959;23;19915;-85
2022/05/03 00:34:37;;;;;;;;;;;;;;;10.81;94.73;99752.53;6186403;23;19916;-85
2022/05/03 00:37:02;;;;;;;;;;;;;;;10.71;95.71;99759.22;6186174;23;19915;-85
2022/05/03 00:39:28;;;;;;;;;;;;;;;10.70;94.72;99752.09;6186418;23;19911;-85
2022/05/03 00:41:53;;;;;;;;;;;;;;;10.75;95.12;99749.56;6186207;23;20245;-91
2022/05/03 00:47:14;;;;;;;;;;;;;;;10.69;94.43;99747.78;6211743;23;20358;-85
2022/05/03 00:49:58;;;;;;;;;;;;;;;10.67;95.50;99759.31;6186264;23;19912;-85
2022/05/03 00:52:24;;;;;;;;;;;;;;;10.69;95.58;99745.00;6213051;23;19922;-85
2022/05/03 00:55:13;;;;;;;;;;;;;;;10.74;97.91;99739.69;6186382;23;19995;-85
2022/05/03 00:57:58;;;;;;;;;;;;;;;10.78;97.09;99742.34;6196233;23;19912;-85
2022/05/03 01:00:23;;;;;;;;;;;;;;;10.74;98.34;99744.44;6184867;23;19943;-85
2022/05/03 01:03:19;;;;;;;;;;;;;;;10.70;98.05;99746.56;6129801;23;19920;-87
2022/05/03 01:06:00;;;;;;;;;;;;;;;10.65;97.87;99738.78;6153190;23;19934;-87
2022/05/03 01:08:32;;;;;;;;;;;;;;;10.48;99.45;99745.66;6127056;23;19991;-86
2022/05/03 01:11:07;;;;;;;;;;;;;;;10.33;99.58;99750.09;6154143;23;19912;-87
2022/05/03 01:13:42;;;;;;;;;;;;;;;10.22;99.18;99750.41;6155464;23;19943;-87
2022/05/03 01:16:27;;;;;;;;;;;;;;;10.05;100.00;99746.13;6156091;23;19913;-87
2022/05/03 01:18:52;;;;;;;;;;;;;;;10.08;99.31;99751.56;6154218;23;19920;-87
2022/05/03 01:21:32;;;;;;;;;;;;;;;10.17;99.62;99748.97;6154804;23;19908;-83
2022/05/03 01:24:16;;;;;;;;;;;;;;;10.25;98.64;99743.97;6153951;23;19959;-83
2022/05/03 01:26:42;;;;;;;;;;;;;;;10.29;98.41;99748.22;6155496;23;19912;-83
2022/05/03 01:29:26;;;;;;;;;;;;;;;10.07;100.00;99744.47;6153332;23;19913;-83
2022/05/03 01:31:53;;;;;;;;;;;;;;;9.92;99.82;99754.41;6154661;23;19919;-83
2022/05/03 01:34:19;;;;;;;;;;;;;;;9.73;99.57;99753.38;6152553;23;19920;-83
2022/05/03 01:36:44;;;;;;;;;;;;;;;9.75;99.35;99753.69;6155054;23;19987;-83
2022/05/03 01:39:14;;;;;;;;;;;;;;;9.72;99.80;99751.81;6154596;23;19912;-83
2022/05/03 01:41:54;;;;;;;;;;;;;;;9.68;98.52;99756.66;6154775;23;19908;-83
2022/05/03 01:44:26;;;;;;;;;;;;;;;9.56;98.75;99754.63;6152642;23;19959;-83
2022/05/03 01:46:54;;;;;;;;;;;;;;;9.47;100.00;99753.69;6154614;23;19920;-83
2022/05/03 01:52:29;;;;;;;;;;;;;;;9.22;100.00;99741.28;6133011;23;19916;-83
2022/05/03 01:55:01;;;;;;;;;;;;;;;9.31;100.00;99755.28;6154054;23;19947;-83
2022/05/03 01:57:29;;;;;;;;;;;;;;;9.37;100.00;99752.78;6154445;23;20369;-83
2022/05/03 02:00:01;;;;;;;;;;;;;;;9.41;100.00;99736.84;6152727;23;19916;-83
2022/05/03 02:02:35;;;;;;;;;;;;;;;9.40;100.00;99745.59;6137784;23;19920;-83
2022/05/03 02:05:05;;;;;;;;;;;;;;;9.37;100.00;99744.47;6123317;23;20353;-83
2022/05/03 02:07:48;;;;;;;;;;;;;;;9.38;100.00;99742.50;6125344;23;20323;-83
2022/05/03 02:10:20;;;;;;;;;;;;;;;9.31;100.00;99744.22;6124462;23;19913;-83
2022/05/03 02:12:52;;;;;;;;;;;;;;;9.29;100.00;99735.59;6124775;23;20310;-83
2022/05/03 02:15:22;;;;;;;;;;;;;;;9.24;100.00;99744.41;6125130;23;19924;-83
2022/05/03 02:17:54;;;;;;;;;;;;;;;9.26;100.00;99749.53;6124157;23;19924;-83
2022/05/03 02:20:28;;;;;;;;;;;;;;;9.34;100.00;99750.88;6124647;23;19917;-83
2022/05/03 02:23:03;;;;;;;;;;;;;;;9.38;100.00;99748.03;6124799;23;19928;-83
2022/05/03 02:25:35;;;;;;;;;;;;;;;9.26;100.00;99747.50;6124383;23;19971;-83
2022/05/03 02:28:19;;;;;;;;;;;;;;;9.10;100.00;99744.75;6124467;23;19912;-83
2022/05/03 02:30:45;;;;;;;;;;;;;;;8.98;100.00;99745.47;6124647;23;19959;-83
2022/05/03 02:33:13;;;;;;;;;;;;;;;8.94;100.00;99746.78;6123106;23;19947;-83
2022/05/03 02:35:40;;;;;;;;;;;;;;;8.93;100.00;99742.47;6124469;23;19913;-83
2022/05/03 02:38:06;;;;;;;;;;;;;;;8.91;100.00;99729.03;6098938;23;20343;-83
2022/05/03 02:40:31;;;;;;;;;;;;;;;8.81;100.00;99743.94;6123301;23;19920;-83
2022/05/03 02:42:57;;;;;;;;;;;;;;;8.69;100.00;99748.16;6122854;23;19913;-83
2022/05/03 02:45:22;;;;;;;;;;;;;;;8.71;100.00;99739.41;6123864;23;19943;-83
2022/05/03 02:48:00;;;;;;;;;;;;;;;8.75;100.00;99740.09;6124784;23;19909;-83
2022/05/03 02:50:44;;;;;;;;;;;;;;;8.76;100.00;99733.38;6124107;23;20336;-83
2022/05/03 02:53:33;;;;;;;;;;;;;;;8.79;100.00;99735.28;6122841;23;19912;-83
2022/05/03 02:56:01;;;;;;;;;;;;;;;8.81;100.00;99741.16;6124354;23;19913;-83
2022/05/03 02:58:45;;;;;;;;;;;;;;;8.80;100.00;99742.38;6123841;23;19917;-83
2022/05/03 03:04:18;;;;;;;;;;;;;;;8.84;100.00;99743.06;6123591;23;20290;-83
2022/05/03 03:06:43;;;;;;;;;;;;;;;8.75;100.00;99740.09;6123629;23;19968;-83
2022/05/03 03:09:09;;;;;;;;;;;;;;;8.78;100.00;99739.25;6122166;23;19913;-83
2022/05/03 03:11:40;;;;;;;;;;;;;;;8.88;100.00;99733.47;6124615;23;19917;-83
2022/05/03 03:14:07;;;;;;;;;;;;;;;8.94;100.00;99733.69;6122437;23;19916;-83
2022/05/03 03:16:42;;;;;;;;;;;;;;;8.99;100.00;99738.72;6125145;23;19915;-83
2022/05/03 03:19:13;;;;;;;;;;;;;;;9.01;100.00;99741.84;6121560;23;19913;-83
2022/05/03 03:21:39;;;;;;;;;;;;;;;8.78;100.00;99742.78;6123210;23;19921;-83
2022/05/03 03:24:04;;;;;;;;;;;;;;;8.72;100.00;99739.00;6122677;23;19951;-82
2022/05/03 03:26:30;;;;;;;;;;;;;;;8.78;100.00;99747.53;6123453;23;19992;-82
2022/05/03 03:28:55;;;;;;;;;;;;;;;8.83;100.00;99747.03;6123116;23;19917;-83
2022/05/03 03:31:26;;;;;;;;;;;;;;;8.80;100.00;99742.38;6123153;23;20282;-82
2022/05/03 03:33:53;;;;;;;;;;;;;;;8.85;100.00;99739.09;6122714;23;20271;-83
2022/05/03 03:36:19;;;;;;;;;;;;;;;8.85;100.00;99745.41;6122634;23;19984;-83
2022/05/03 03:38:47;;;;;;;;;;;;;;;8.83;100.00;99749.78;6123945;23;19936;-82
2022/05/03 03:41:12;;;;;;;;;;;;;;;8.87;100.00;99747.72;6122003;23;19916;-82
2022/05/03 03:43:38;;;;;;;;;;;;;;;8.85;100.00;99745.41;6122998;23;20378;-83
2022/05/03 03:46:05;;;;;;;;;;;;;;;8.87;100.00;99753.25;6124177;23;20335;-83
2022/05/03 03:48:31;;;;;;;;;;;;;;;8.90;100.00;99761.47;6123512;23;19908;-83
2022/05/03 03:50:56;;;;;;;;;;;;;;;8.91;100.00;99765.00;6123137;23;20066;-84
2022/05/03 03:53:22;;;;;;;;;;;;;;;8.85;100.00;99766.75;6122389;23;19919;-84
2022/05/03 03:55:48;;;;;;;;;;;;;;;8.83;100.00;99769.16;6121835;23;20413;-84
2022/05/03 03:58:14;;;;;;;;;;;;;;;8.80;100.00;99770.03;6123509;23;19993;-83
2022/05/03 04:00:39;;;;;;;;;;;;;;;8.84;100.00;99771.50;6124142;23;19913;-83
2022/05/03 04:03:05;;;;;;;;;;;;;;;8.87;100.00;99764.31;6123293;23;20327;-83
2022/05/03 04:05:30;;;;;;;;;;;;;;;8.93;100.00;99768.13;6123494;23;19944;-82
2022/05/03 04:07:56;;;;;;;;;;;;;;;8.95;100.00;99776.75;6097827;23;20327;-82
2022/05/03 04:10:21;;;;;;;;;;;;;;;9.00;100.00;99779.00;6123565;23;19920;-88
2022/05/03 04:12:47;;;;;;;;;;;;;;;9.02;100.00;99775.81;6124231;23;19913;-83
2022/05/03 04:15:12;;;;;;;;;;;;;;;8.99;100.00;99774.69;6123421;23;19913;-83
2022/05/03 04:17:38;;;;;;;;;;;;;;;9.01;100.00;99774.25;6123788;23;19909;-83
2022/05/03 04:20:04;;;;;;;;;;;;;;;9.00;100.00;99772.69;6123764;23;19916;-83
2022/05/03 04:22:30;;;;;;;;;;;;;;;9.01;100.00;99779.78;6123588;23;19913;-82
2022/05/03 04:24:56;;;;;;;;;;;;;;;9.01;100.00;99779.78;6122746;23;19917;-83
2022/05/03 04:27:21;;;;;;;;;;;;;;;9.08;100.00;99779.63;6121427;23;19944;-83
2022/05/03 04:29:47;;;;;;;;;;;;;;;9.15;100.00;99777.44;6124467;23;19972;-93
2022/05/03 04:32:12;;;;;;;;;;;;;;;9.20;100.00;99776.16;6122780;23;19920;-88
2022/05/03 04:34:38;;;;;;;;;;;;;;;9.26;100.00;99786.25;6097004;23;19916;-89
2022/05/03 04:37:03;;;;;;;;;;;;;;;9.33;100.00;99774.25;6122613;23;19987;-90
2022/05/03 04:39:29;;;;;;;;;;;;;;;9.40;100.00;99781.56;6123096;23;19935;-90
2022/05/03 04:41:54;;;;;;;;;;;;;;;9.50;100.00;99783.31;6123983;23;19920;-90
2022/05/03 04:44:20;;;;;;;;;;;;;;;9.56;100.00;99787.06;6123404;23;19936;-89
2022/05/03 04:46:45;;;;;;;;;;;;;;;9.56;100.00;99781.53;6123876;23;19996;-90
2022/05/03 04:49:11;;;;;;;;;;;;;;;9.56;100.00;99790.63;6123159;23;19916;-90
2022/05/03 04:51:36;;;;;;;;;;;;;;;9.63;100.00;99789.66;6121580;23;19912;-90
2022/05/03 04:54:01;;;;;;;;;;;;;;;9.64;100.00;99793.97;6122889;23;19979;-89
2022/05/03 04:56:27;;;;;;;;;;;;;;;9.76;100.00;99784.94;6119976;23;19948;-89
2022/05/03 04:58:55;;;;;;;;;;;;;;;9.89;100.00;99793.31;6121612;23;19980;-89
2022/05/03 05:01:20;;;;;;;;;;;;;;;9.95;100.00;99792.31;6094567;23;19923;-89
2022/05/03 05:03:46;;;;;;;;;;;;;;;10.06;100.00;99787.28;6120186;23;19944;-89
2022/05/03 05:06:11;;;;;;;;;;;;;;;10.20;100.00;99781.34;6120788;23;20443;-89
2022/05/03 05:08:40;;;;;;;;;;;;;;;10.40;100.00;99774.81;6121773;23;19932;-88
2022/05/03 05:11:06;;;;;;;;;;;;;;;10.63;100.00;99774.53;6121372;23;20089;-89
2022/05/03 05:13:32;;;;;;;;;;;;;;;10.84;100.00;99779.38;6119640;23;20339;-88
2022/05/03 05:15:57;;;;;;;;;;;;;;;11.06;98.79;99779.47;6120905;23;19988;-89
2022/05/03 05:18:24;;;;;;;;;;;;;;;11.28;97.50;99774.78;6121557;23;20309;-89
2022/05/03 05:20:49;;;;;;;;;;;;;;;11.47;95.73;99781.28;6122443;23;19908;-88
2022/05/03 05:23:15;;;;;;;;;;;;;;;11.65;94.77;99782.19;6121828;23;20320;-89
2022/05/03 05:25:40;;;;;;;;;;;;;;;11.88;93.99;99778.25;6123305;23;19909;-89
2022/05/03 05:28:06;;;;;;;;;;;;;;;12.13;92.37;99780.88;6123832;23;19920;-85
2022/05/03 05:30:31;;;;;;;;;;;;;;;12.33;91.31;99769.44;6123698;23;20007;-85
2022/05/03 05:32:56;;;;;;;;;;;;;;;12.62;89.91;99785.78;6121412;23;20004;-85
2022/05/03 05:35:22;;;;;;;;;;;;;;;12.81;88.28;99784.66;6122074;23;20279;-86
2022/05/03 05:37:47;;;;;;;;;;;;;;;13.04;88.31;99781.31;6121923;23;19921;-86
2022/05/03 05:40:12;;;;;;;;;;;;;;;13.27;87.31;99787.56;6120368;23;20339;-91
2022/05/03 05:42:38;;;;;;;;;;;;;;;13.36;87.68;99788.38;6096939;23;20259;-85
2022/05/03 05:45:04;;;;;;;;;;;;;;;13.50;87.02;99787.78;6123627;23;19987;-86
2022/05/03 05:47:29;;;;;;;;;;;;;;;13.62;86.72;99783.31;6123665;23;20549;-89
2022/05/03 05:49:55;;;;;;;;;;;;;;;13.78;85.82;99785.00;6122643;23;20051;-90
2022/05/03 05:55:05;;;;;;;;;;;;;;;14.19;84.08;99789.16;6122005;23;20284;-89
2022/05/03 05:57:30;;;;;;;;;;;;;;;14.34;83.81;99790.06;6124572;23;19984;-88
2022/05/03 05:59:55;;;;;;;;;;;;;;;14.54;84.07;99783.97;6122856;23;19963;-89
2022/05/03 06:02:21;;;;;;;;;;;;;;;14.66;83.46;99789.38;6126663;23;19923;-88
2022/05/03 06:04:46;;;;;;;;;;;;;;;14.78;83.61;99787.63;6154093;23;19959;-88
2022/05/03 06:07:11;;;;;;;;;;;;;;;14.84;82.72;99791.31;6126733;23;19913;-89
2022/05/03 06:09:37;;;;;;;;;;;;;;;14.93;83.42;99800.41;6153191;23;19912;-88
2022/05/03 06:12:03;;;;;;;;;;;;;;;15.22;82.70;99797.00;6154534;23;19919;-89
2022/05/03 06:14:28;;;;;;;;;;;;;;;15.46;80.69;99791.44;6154485;23;20320;-88
2022/05/03 06:16:54;;;;;;;;;;;;;;;15.55;77.88;99794.19;6154643;23;19916;-89
2022/05/03 06:19:19;;;;;;;;;;;;;;;15.69;76.71;99793.44;6128223;23;19919;-90
2022/05/03 06:21:45;;;;;;;;;;;;;;;15.81;76.60;99800.81;6128592;23;19917;-89
2022/05/03 06:24:10;;;;;;;;;;;;;;;15.89;77.14;99794.88;6154340;23;20023;-89
2022/05/03 06:26:36;;;;;;;;;;;;;;;16.00;77.70;99803.47;6154440;23;19912;-89
2022/05/03 06:29:02;;;;;;;;;;;;;;;16.24;76.24;99792.97;6128012;23;19913;-88
2022/05/03 06:31:28;;;;;;;;;;;;;;;16.39;73.47;99799.34;6153706;23;19964;-88
2022/05/03 06:33:54;;;;;;;;;;;;;;;16.36;73.03;99797.53;6154091;23;19967;-89
2022/05/03 06:36:19;;;;;;;;;;;;;;;16.45;72.24;99802.25;6153126;23;20279;-89
2022/05/03 06:38:45;;;;;;;;;;;;;;;16.74;70.20;99807.88;6152222;23;19913;-89
2022/05/03 06:41:12;;;;;;;;;;;;;;;16.73;70.62;99793.09;6151588;23;19972;-90
2022/05/03 06:43:37;;;;;;;;;;;;;;;16.85;70.17;99796.06;6126786;23;20002;-89
2022/05/03 06:46:03;;;;;;;;;;;;;;;17.04;69.33;99802.97;6126262;23;20319;-86
2022/05/03 06:48:28;;;;;;;;;;;;;;;17.09;69.11;99805.09;6152330;23;20289;-85
2022/05/03 06:50:54;;;;;;;;;;;;;;;17.29;69.43;99802.31;6151277;23;19908;-86
2022/05/03 06:53:19;;;;;;;;;;;;;;;17.34;68.40;99804.44;6127610;23;19913;-86
2022/05/03 06:55:44;;;;;;;;;;;;;;;17.48;63.26;99808.44;6153485;23;20330;-87
2022/05/03 06:58:10;;;;;;;;;;;;;;;17.54;62.04;99806.50;6154291;23;20228;-86
2022/05/03 07:00:35;;;;;;;;;;;;;;;17.55;60.42;99808.03;6154801;23;19913;-86
2022/05/03 07:03:01;;;;;;;;;;;;;;;17.61;61.26;99801.25;6153950;23;19939;-86
2022/05/03 07:05:26;;;;;;;;;;;;;;;17.67;62.48;99796.47;6157426;23;19952;-86
2022/05/03 07:07:52;;;;;;;;;;;;;;;18.01;62.98;99802.47;6154733;23;20338;-86
2022/05/03 07:10:17;;;;;;;;;;;;;;;18.30;60.83;99798.69;6153482;23;19912;-86
2022/05/03 07:12:42;;;;;;;;;;;;;;;18.28;58.79;99799.19;6154775;23;20353;-86
2022/05/03 07:15:08;;;;;;;;;;;;;;;18.38;57.39;99806.19;6154461;23;19916;-86
2022/05/03 07:23:02;;;;;;;;;;;;;;;18.84;54.65;99796.91;6154225;23;19912;-86
2022/05/03 07:25:28;;;;;;;;;;;;;;;18.95;54.54;99802.59;6153353;23;20326;-86
2022/05/03 07:27:53;;;;;;;;;;;;;;;19.09;54.01;99802.44;6154553;23;19912;-86
2022/05/03 07:30:19;;;;;;;;;;;;;;;19.23;54.71;99806.38;6154065;23;19908;-86
2022/05/03 07:32:45;;;;;;;;;;;;;;;19.58;54.74;99805.28;6128715;23;19983;-84
2022/05/03 07:35:11;;;;;;;;;;;;;;;19.97;53.48;99786.53;6126254;23;19915;-85
2022/05/03 07:37:36;;;;;;;;;;;;;;;20.23;52.85;99797.56;6154038;23;19971;-85
2022/05/03 07:40:02;;;;;;;;;;;;;;;20.19;52.33;99797.81;6153592;23;19908;-86
2022/05/03 07:42:28;;;;;;;;;;;;;;;20.34;52.69;99789.19;6153699;23;20339;-85
2022/05/03 07:44:53;;;;;;;;;;;;;;;20.43;52.13;99786.88;6153732;23;19912;-85
2022/05/03 07:47:18;;;;;;;;;;;;;;;20.43;52.61;99792.50;6153515;23;19931;-85
2022/05/03 07:49:44;;;;;;;;;;;;;;;20.68;52.51;99790.75;6153892;23;20283;-86
2022/05/03 07:52:09;;;;;;;;;;;;;;;20.92;52.39;99787.38;6127170;23;19963;-85
2022/05/03 07:54:35;;;;;;;;;;;;;;;21.19;50.08;99799.94;6153576;23;19919;-85
2022/05/03 07:57:00;;;;;;;;;;;;;;;21.08;50.77;99795.06;6151561;23;20282;-86
2022/05/03 07:59:26;;;;;;;;;;;;;;;21.00;50.15;99799.69;6151698;23;19916;-88
2022/05/03 08:01:55;;;;;;;;;;;;;;;21.31;49.51;99779.63;6152008;23;19919;-88
2022/05/03 08:04:20;;;;;;;;;;;;;;;21.61;49.48;99795.97;6151455;23;19916;-89
2022/05/03 08:06:46;;;;;;;;;;;;;;;21.16;46.22;99800.97;6152062;23;19917;-89
2022/05/03 08:09:11;;;;;;;;;;;;;;;21.01;47.41;99792.00;6151628;23;19917;-88
2022/05/03 08:11:36;;;;;;;;;;;;;;;21.14;47.02;99809.97;6153084;23;19927;-89
2022/05/03 08:14:04;;;;;;;;;;;;;;;20.51;48.47;99814.53;6152855;23;19915;-89
2022/05/03 08:16:31;;;;;;;;;;;;;;;20.86;47.61;99817.66;6153529;23;19923;-89
2022/05/03 08:18:57;;;;;;;;;;;;;;;21.09;48.22;99818.38;6153508;23;19979;-88
2022/05/03 08:21:22;;;;;;;;;;;;;;;21.38;47.49;99818.63;6153481;23;19984;-85
2022/05/03 08:23:48;;;;;;;;;;;;;;;21.54;48.69;99821.91;6153366;23;20350;-86
2022/05/03 08:26:13;;;;;;;;;;;;;;;21.59;47.05;99821.91;6153207;23;20331;-86
2022/05/03 08:28:41;;;;;;;;;;;;;;;21.64;48.24;99814.69;6153887;23;19945;-85
2022/05/03 08:31:07;;;;;;;;;;;;;;;21.75;48.25;99829.53;6153661;23;20273;-85
2022/05/03 08:33:33;;;;;;;;;;;;;;;21.78;45.71;99816.44;6152910;23;19919;-85
2022/05/03 08:35:59;;;;;;;;;;;;;;;21.91;45.43;99810.22;6154020;23;19909;-85
2022/05/03 08:43:52;;;;;;;;;;;;;;;21.97;45.77;99816.63;6153000;23;20251;-88
2022/05/03 08:46:19;;;;;;;;;;;;;;;22.35;45.34;99823.34;6153145;23;19936;-89
2022/05/03 08:48:44;;;;;;;;;;;;;;;22.64;43.36;99823.41;6153420;23;19983;-89
2022/05/03 08:51:11;;;;;;;;;;;;;;;22.65;41.72;99824.94;6153400;23;19955;-88
2022/05/03 08:53:36;;;;;;;;;;;;;;;22.62;43.74;99819.56;6153378;23;19931;-89
2022/05/03 08:56:02;;;;;;;;;;;;;;;22.75;44.03;99819.75;6153759;23;19912;-89
2022/05/03 08:58:27;;;;;;;;;;;;;;;22.81;43.10;99819.72;6152788;23;19992;-89
2022/05/03 09:00:52;;;;;;;;;;;;;;;23.04;43.32;99821.03;6153655;23;19934;-89
2022/05/03 09:03:18;;;;;;;;;;;;;;;23.25;41.75;99822.88;6152679;23;19936;-89
2022/05/03 09:05:43;;;;;;;;;;;;;;;23.11;42.40;99821.22;6153440;23;19913;-88
2022/05/03 09:08:10;;;;;;;;;;;;;;;23.29;41.51;99825.44;6127028;23;19917;-88
2022/05/03 09:10:38;;;;;;;;;;;;;;;23.38;40.08;99827.13;6153136;23;19954;-89
2022/05/03 09:13:20;;;;;;;;;;;;;;;23.16;40.60;99820.41;6127922;23;19912;-88
2022/05/03 09:15:47;;;;;;;;;;;;;;;23.28;40.47;99817.47;6153483;23;19939;-89
2022/05/03 09:18:20;;;;;;;;;;;;;;;22.91;40.13;99824.50;6153393;23;19908;-89
2022/05/03 09:23:50;;;;;;;;;;;;;;;22.77;39.61;99822.81;6152812;23;19931;-89
2022/05/03 09:26:18;;;;;;;;;;;;;;;22.93;39.34;99819.06;6154470;23;20423;-88
2022/05/03 09:28:53;;;;;;;;;;;;;;;23.15;38.68;99820.94;6154892;23;20246;-88
2022/05/03 09:31:31;;;;;;;;;;;;;;;23.59;38.21;99819.72;6154491;23;20354;-89
2022/05/03 09:33:57;;;;;;;;;;;;;;;23.87;35.70;99817.31;6154955;23;19921;-89
2022/05/03 09:36:22;;;;;;;;;;;;;;;23.77;34.58;99807.69;6154962;23;19923;-88
2022/05/03 09:38:48;;;;;;;;;;;;;;;23.69;35.08;99804.69;6129047;23;19995;-88
2022/05/03 09:41:14;;;;;;;;;;;;;;;23.75;34.90;99809.50;6155244;23;19912;-88
2022/05/03 09:43:58;;;;;;;;;;;;;;;23.64;34.51;99808.34;6154722;23;19932;-89
2022/05/03 09:46:24;;;;;;;;;;;;;;;23.71;34.32;99798.47;6154971;23;20335;-88
2022/05/03 09:48:53;;;;;;;;;;;;;;;23.94;33.28;99802.53;6154411;23;19912;-87
2022/05/03 09:51:20;;;;;;;;;;;;;;;23.92;32.14;99802.31;6154797;23;20339;-89
2022/05/03 09:53:56;;;;;;;;;;;;;;;23.85;32.66;99802.94;6154849;23;19932;-88
2022/05/03 09:56:23;;;;;;;;;;;;;;;24.04;34.39;99798.03;6154941;23;19924;-89
2022/05/03 09:58:48;;;;;;;;;;;;;;;24.08;33.65;99798.50;6154400;23;19917;-88
2022/05/03 10:01:14;;;;;;;;;;;;;;;24.42;32.49;99781.03;6154524;23;19939;-89
2022/05/03 10:03:39;;;;;;;;;;;;;;;24.41;31.54;99791.59;6128555;23;20327;-89
2022/05/03 10:06:05;;;;;;;;;;;;;;;24.54;32.15;99788.06;6129174;23;19960;-89
2022/05/03 10:08:30;;;;;;;;;;;;;;;24.32;32.14;99794.81;6153327;23;19920;-88
2022/05/03 10:10:58;;;;;;;;;;;;;;;24.00;31.50;99786.25;6127288;23;19924;-88
2022/05/03 10:13:24;;;;;;;;;;;;;;;23.69;32.65;99790.53;6153546;23;19916;-88
2022/05/03 10:21:23;;;;;;;;;;;;;;;23.21;33.56;99790.53;6154547;23;20326;-88
2022/05/03 10:24:09;;;;;;;;;;;;;;;23.11;32.75;99792.16;6154411;23;19912;-88
2022/05/03 10:26:52;;;;;;;;;;;;;;;23.15;32.54;99793.41;6128592;23;20231;-88
2022/05/03 10:29:18;;;;;;;;;;;;;;;23.18;32.97;99780.25;6154360;23;19944;-88
2022/05/03 10:31:52;;;;;;;;;;;;;;;23.21;32.13;99779.97;6128702;23;20377;-88
2022/05/03 10:34:36;;;;;;;;;;;;;;;23.14;31.75;99780.56;6154279;23;19916;-88
2022/05/03 10:37:03;;;;;;;;;;;;;;;23.01;32.60;99768.38;6154068;23;19980;-88
2022/05/03 10:39:28;;;;;;;;;;;;;;;22.65;34.04;99764.78;6154093;23;20223;-88
2022/05/03 10:42:01;;;;;;;;;;;;;;;22.84;34.62;99771.34;6128402;23;19967;-88
2022/05/03 10:44:46;;;;;;;;;;;;;;;22.95;35.45;99768.41;6153999;23;19912;-88
2022/05/03 10:47:12;;;;;;;;;;;;;;;23.47;35.18;99770.19;6153598;23;19967;-87
2022/05/03 10:49:56;;;;;;;;;;;;;;;23.67;35.13;99772.53;6152690;23;19908;-87
2022/05/03 10:52:22;;;;;;;;;;;;;;;23.62;34.61;99773.34;6152680;23;20367;-87
2022/05/03 10:55:03;;;;;;;;;;;;;;;23.40;33.42;99767.94;6154040;23;19920;-88
2022/05/03 10:57:28;;;;;;;;;;;;;;;23.45;33.09;99767.13;6152181;23;19913;-87
2022/05/03 10:59:53;;;;;;;;;;;;;;;23.71;32.48;99767.31;6150342;23;19916;-88
2022/05/03 11:02:19;;;;;;;;;;;;;;;23.99;32.02;99762.03;6126988;23;20310;-88
2022/05/03 11:05:04;;;;;;;;;;;;;;;23.56;32.81;99758.50;6153354;23;19912;-88
2022/05/03 11:07:29;;;;;;;;;;;;;;;23.45;32.10;99759.41;6152615;23;20062;-87
2022/05/03 11:09:55;;;;;;;;;;;;;;;23.22;32.98;99758.84;6127050;23;19912;-88
2022/05/03 11:12:40;;;;;;;;;;;;;;;23.42;33.47;99754.00;6153488;23;19912;-88
2022/05/03 11:15:06;;;;;;;;;;;;;;;23.60;34.06;99741.97;6153098;23;19912;-87
2022/05/03 11:17:32;;;;;;;;;;;;;;;24.07;32.07;99748.03;6153920;23;19912;-87
2022/05/03 11:19:59;;;;;;;;;;;;;;;24.35;30.47;99739.88;6127830;23;20295;-87
2022/05/03 11:22:25;;;;;;;;;;;;;;;24.80;32.16;99739.91;6152720;23;20319;-87
2022/05/03 11:24:52;;;;;;;;;;;;;;;24.18;31.44;99738.63;6126709;23;20223;-88
2022/05/03 11:27:18;;;;;;;;;;;;;;;24.92;30.39;99738.44;6126662;23;19943;-88
2022/05/03 11:29:43;;;;;;;;;;;;;;;25.29;30.84;99725.34;6152210;23;19912;-88
2022/05/03 11:32:09;;;;;;;;;;;;;;;25.01;29.77;99729.50;6152582;23;20250;-87
2022/05/03 11:34:35;;;;;;;;;;;;;;;24.63;30.45;99728.84;6152420;23;19924;-88
2022/05/03 11:37:02;;;;;;;;;;;;;;;24.76;31.32;99735.84;6152636;23;19915;-88
2022/05/03 11:39:27;;;;;;;;;;;;;;;25.19;31.28;99735.63;6126406;23;19920;-88
2022/05/03 11:41:53;;;;;;;;;;;;;;;25.51;32.85;99730.56;6151622;23;19912;-87
2022/05/03 11:44:18;;;;;;;;;;;;;;;25.65;31.56;99732.09;6151353;23;19920;-88
2022/05/03 11:46:45;;;;;;;;;;;;;;;25.47;32.70;99733.00;6152716;23;20338;-88
2022/05/03 11:49:12;;;;;;;;;;;;;;;25.39;32.78;99737.81;6152106;23;20298;-88
2022/05/03 11:57:12;;;;;;;;;;;;;;;24.63;33.51;99740.19;6152506;23;19927;-87
2022/05/03 11:59:41;;;;;;;;;;;;;;;24.05;32.66;99737.25;6126433;23;20313;-87
2022/05/03 12:02:11;;;;;;;;;;;;;;;23.88;33.83;99744.44;6125950;23;19920;-87
2022/05/03 12:04:36;;;;;;;;;;;;;;;23.61;34.36;99732.19;6151760;23;20338;-87
2022/05/03 12:07:02;;;;;;;;;;;;;;;23.29;35.04;99740.53;6152365;23;19980;-87
2022/05/03 12:09:27;;;;;;;;;;;;;;;23.00;36.99;99739.31;6126043;23;20323;-87
2022/05/03 12:14:42;;;;;;;;;;;;;;;22.32;40.93;99740.41;6128922;23;19995;-86
2022/05/03 12:17:08;;;;;;;;;;;;;;;22.06;42.69;99735.19;6127315;23;19913;-87
2022/05/03 12:19:38;;;;;;;;;;;;;;;21.50;43.98;99731.88;6125699;23;19913;-87
2022/05/03 12:22:07;;;;;;;;;;;;;;;21.19;45.85;99732.25;6102194;23;19909;-87
2022/05/03 12:24:38;;;;;;;;;;;;;;;20.88;44.25;99730.50;6152024;23;19913;-86
2022/05/03 12:27:13;;;;;;;;;;;;;;;20.57;44.52;99727.97;6127198;23;19912;-85
2022/05/03 12:29:44;;;;;;;;;;;;;;;20.39;45.42;99718.75;6101705;23;19916;-84
2022/05/03 12:32:17;;;;;;;;;;;;;;;20.43;43.82;99722.09;6151835;23;19917;-85
2022/05/03 12:34:57;;;;;;;;;;;;;;;20.66;44.42;99716.44;6151784;23;19916;-85
2022/05/03 12:37:23;;;;;;;;;;;;;;;21.18;42.81;99710.97;6151275;23;19956;-85
2022/05/03 12:39:48;;;;;;;;;;;;;;;21.57;41.39;99705.16;6152004;23;19912;-85
2022/05/03 12:42:15;;;;;;;;;;;;;;;21.95;43.46;99711.91;6126115;23;19971;-85
2022/05/03 12:44:47;;;;;;;;;;;;;;;22.41;45.38;99708.22;6152200;23;19945;-85
2022/05/03 12:47:13;;;;;;;;;;;;;;;22.87;37.65;99710.91;6126304;23;19996;-85
2022/05/03 12:49:38;;;;;;;;;;;;;;;22.64;36.05;99709.56;6151918;23;19946;-85
2022/05/03 12:52:04;;;;;;;;;;;;;;;22.72;36.22;99691.53;6153707;23;19908;-85
2022/05/03 12:54:31;;;;;;;;;;;;;;;22.89;36.20;99701.91;6127787;23;19924;-85
2022/05/03 12:59:43;;;;;;;;;;;;;;;23.56;34.20;99691.34;6153589;23;19959;-85
2022/05/03 13:02:08;;;;;;;;;;;;;;;23.35;33.39;99692.34;6156055;23;20295;-85
2022/05/03 13:04:34;;;;;;;;;;;;;;;23.49;35.44;99686.28;6156218;23;20349;-85
2022/05/03 13:07:00;;;;;;;;;;;;;;;23.62;33.28;99691.25;6130338;23;19916;-88
2022/05/03 13:09:26;;;;;;;;;;;;;;;23.70;32.41;99678.75;6155742;23;19908;-87
2022/05/03 13:11:52;;;;;;;;;;;;;;;23.51;32.61;99688.56;6156164;23;19967;-87
2022/05/03 13:14:20;;;;;;;;;;;;;;;23.82;34.04;99682.19;6129976;23;19909;-88
2022/05/03 13:16:46;;;;;;;;;;;;;;;23.85;33.31;99683.97;6155458;23;19912;-87
2022/05/03 13:19:12;;;;;;;;;;;;;;;23.57;34.97;99686.44;6155129;23;20040;-88
2022/05/03 13:21:39;;;;;;;;;;;;;;;22.88;35.69;99695.47;6154968;23;20012;-88
2022/05/03 13:24:06;;;;;;;;;;;;;;;22.92;35.53;99695.16;6155436;23;19936;-85
2022/05/03 13:26:33;;;;;;;;;;;;;;;22.77;34.58;99689.91;6154803;23;19920;-85
2022/05/03 13:29:02;;;;;;;;;;;;;;;22.63;34.48;99693.88;6155183;23;19912;-85
2022/05/03 13:31:28;;;;;;;;;;;;;;;22.54;34.88;99682.91;6104384;23;19915;-85
2022/05/03 13:33:54;;;;;;;;;;;;;;;22.38;36.51;99681.00;6154911;23;19912;-85